Terminal Aerodrome Forecast
Issued by NWS

Home | Current Version | Previous Version | Text Only | Print | Product List | Glossary On
Versions: 1 2 3 4 5 6 7 8 9 10 11 12 13 14 15 16 17 18 19 20 21 22 23 24 25 26
000
FTUS43 KDMX 050520
TAFFOD
TAF
KFOD 050520Z 0506/0606 16006KT P6SM VCSH FEW060 BKN120
     FM050900 17007KT P6SM SCT120
     FM051600 18011G19KT P6SM SCT180
     FM060000 16010KT P6SM SCT180=

USA.gov is the U.S. government's official web portal to all federal, state and local government web resources and services.